createdAt,value
2023-01-25T00:00:10.254Z,60.40
2023-01-25T00:02:59.331Z,56.20
2023-01-25T00:05:27.479Z,53.70
2023-01-25T00:07:56.083Z,64.50
2023-01-25T00:10:24.888Z,81.60
2023-01-25T00:12:53.140Z,81.20
2023-01-25T00:15:24.717Z,83.20
2023-01-25T00:17:52.782Z,73.00
2023-01-25T00:20:20.998Z,84.30
2023-01-25T00:22:49.243Z,68.40
2023-01-25T00:25:17.301Z,71.40
2023-01-25T00:27:45.500Z,78.00
2023-01-25T00:30:13.754Z,76.20
2023-01-25T00:32:53.456Z,77.10
2023-01-25T00:35:21.813Z,71.00
2023-01-25T00:37:53.177Z,71.40
2023-01-25T00:40:21.317Z,69.20
2023-01-25T00:42:49.608Z,71.10
2023-01-25T00:45:17.804Z,78.20
2023-01-25T00:47:46.494Z,72.90
2023-01-25T00:50:15.122Z,76.60
2023-01-25T00:52:43.328Z,66.40
2023-01-25T00:55:11.481Z,71.60
2023-01-25T00:57:39.677Z,64.70
2023-01-25T01:00:08.850Z,60.30
2023-01-25T01:02:37.438Z,63.10
2023-01-25T01:05:06.976Z,71.90
2023-01-25T01:07:36.247Z,68.50
2023-01-25T01:10:05.403Z,66.60
2023-01-25T01:12:33.681Z,65.70
2023-01-25T01:15:02.197Z,76.00
2023-01-25T01:17:30.555Z,70.50
2023-01-25T01:19:58.829Z,68.20
2023-01-25T01:22:27.743Z,63.70
2023-01-25T01:24:55.909Z,68.40
2023-01-25T01:27:24.087Z,62.30
2023-01-25T01:29:52.357Z,62.90
2023-01-25T01:32:20.658Z,46.10
2023-01-25T01:34:51.647Z,66.20
2023-01-25T01:37:19.875Z,63.00
2023-01-25T01:39:47.922Z,66.80
2023-01-25T01:42:16.248Z,65.30
2023-01-25T01:44:50.407Z,58.50
2023-01-25T01:47:40.576Z,61.70
2023-01-25T01:50:23.154Z,61.80
2023-01-25T01:52:52.189Z,73.20
2023-01-25T01:55:24.372Z,74.70
2023-01-25T01:58:00.654Z,63.90
2023-01-25T02:00:33.178Z,60.70
2023-01-25T02:03:03.521Z,62.90
2023-01-25T02:05:55.500Z,65.30
2023-01-25T02:08:25.334Z,57.20
2023-01-25T02:10:53.611Z,60.40
2023-01-25T02:13:22.550Z,62.10
2023-01-25T02:15:52.470Z,61.90
2023-01-25T02:18:21.031Z,65.00
2023-01-25T02:20:53.019Z,60.20
2023-01-25T02:23:30.782Z,57.60
2023-01-25T02:26:03.770Z,59.20
2023-01-25T02:28:44.119Z,59.00
2023-01-25T02:31:13.203Z,59.70
2023-01-25T02:33:41.621Z,77.30
2023-01-25T02:36:12.383Z,64.80
2023-01-25T02:38:45.671Z,62.20
2023-01-25T02:41:21.797Z,58.40
2023-01-25T02:43:50.770Z,60.10
2023-01-25T02:46:27.995Z,65.50
2023-01-25T02:48:57.419Z,68.30
2023-01-25T02:51:27.943Z,66.80
2023-01-25T02:53:57.042Z,63.20
2023-01-25T02:56:25.939Z,58.50
2023-01-25T02:58:54.472Z,56.80
2023-01-25T03:01:23.463Z,60.90
2023-01-25T03:03:52.075Z,61.50
2023-01-25T03:06:20.657Z,59.80
2023-01-25T03:08:48.937Z,62.70
2023-01-25T03:11:17.661Z,60.20
2023-01-25T03:13:46.347Z,64.10
2023-01-25T03:16:14.532Z,56.60
2023-01-25T03:18:44.299Z,56.50
2023-01-25T03:21:18.170Z,68.20
2023-01-25T03:23:48.494Z,64.00
2023-01-25T03:26:22.795Z,77.80
2023-01-25T03:29:17.151Z,63.40
2023-01-25T03:31:46.632Z,69.20
2023-01-25T03:34:16.292Z,69.70
2023-01-25T03:36:44.846Z,67.60
2023-01-25T03:39:13.506Z,70.30
2023-01-25T03:41:43.220Z,72.00
2023-01-25T03:44:13.513Z,77.40
2023-01-25T03:46:43.172Z,74.60
2023-01-25T03:49:13.068Z,77.20
2023-01-25T03:51:41.773Z,77.00
2023-01-25T03:54:10.878Z,65.30
2023-01-25T03:56:39.431Z,62.20
2023-01-25T03:59:15.876Z,58.40
2023-01-25T04:01:44.909Z,61.50
2023-01-25T04:04:13.625Z,61.80
2023-01-25T04:06:43.142Z,63.90
2023-01-25T04:09:14.379Z,60.30
2023-01-25T04:11:50.780Z,59.10
2023-01-25T04:14:28.451Z,62.60
2023-01-25T04:17:08.454Z,57.40
2023-01-25T04:19:36.700Z,61.50
2023-01-25T04:22:06.330Z,64.50
2023-01-25T04:24:38.189Z,55.90
2023-01-25T04:27:07.133Z,55.20
2023-01-25T04:29:41.871Z,68.90
2023-01-25T04:32:14.404Z,72.30
2023-01-25T04:34:42.750Z,63.90
2023-01-25T04:37:14.659Z,57.50
2023-01-25T04:39:52.635Z,78.60
2023-01-25T04:42:21.547Z,76.60
2023-01-25T04:44:53.030Z,74.60
2023-01-25T04:47:22.653Z,73.30
2023-01-25T04:49:51.703Z,74.10
2023-01-25T04:52:21.981Z,63.20
2023-01-25T04:54:50.180Z,55.00
2023-01-25T04:57:18.525Z,62.20
2023-01-25T04:59:50.694Z,65.70
2023-01-25T05:02:19.321Z,68.70
2023-01-25T05:04:47.918Z,60.20
2023-01-25T05:07:16.520Z,49.90
2023-01-25T05:09:45.204Z,57.30
2023-01-25T05:12:14.340Z,63.30
2023-01-25T05:14:52.694Z,71.20
2023-01-25T05:17:22.728Z,71.70
2023-01-25T05:19:51.631Z,59.90
2023-01-25T05:22:23.472Z,59.20
2023-01-25T05:24:54.819Z,58.70
2023-01-25T05:27:25.184Z,53.30
2023-01-25T05:29:57.320Z,60.90
2023-01-25T05:32:46.681Z,66.40
2023-01-25T05:35:15.913Z,58.90
2023-01-25T05:37:45.062Z,64.80
2023-01-25T05:40:20.087Z,69.80
2023-01-25T05:42:57.493Z,66.00
2023-01-25T05:45:27.229Z,171.30
2023-01-25T05:47:58.488Z,99.10
2023-01-25T05:50:28.142Z,77.00
2023-01-25T05:53:03.463Z,66.90
2023-01-25T05:55:32.162Z,77.70
2023-01-25T05:58:04.959Z,68.00
2023-01-25T06:00:33.445Z,64.50
2023-01-25T06:03:02.604Z,63.90
2023-01-25T06:05:33.831Z,61.50
2023-01-25T06:08:03.250Z,55.00
2023-01-25T06:10:40.031Z,56.50
2023-01-25T06:13:08.644Z,44.20
2023-01-25T06:15:37.236Z,49.90
2023-01-25T06:18:37.863Z,45.20
2023-01-25T06:21:26.004Z,65.90
2023-01-25T06:23:55.359Z,61.50
2023-01-25T06:26:23.855Z,48.10
2023-01-25T06:28:53.374Z,43.90
2023-01-25T06:31:22.704Z,59.20
2023-01-25T06:33:53.322Z,48.00
2023-01-25T06:36:23.624Z,55.60
2023-01-25T06:38:53.117Z,47.90
2023-01-25T06:41:23.162Z,49.60
2023-01-25T06:43:52.795Z,52.70
2023-01-25T06:46:21.203Z,60.30
2023-01-25T06:48:49.738Z,69.60
2023-01-25T06:51:19.456Z,59.50
2023-01-25T06:53:48.390Z,56.40
2023-01-25T06:56:22.019Z,70.60
2023-01-25T06:58:51.225Z,55.80
2023-01-25T07:01:23.025Z,54.60
2023-01-25T07:03:54.062Z,75.00
2023-01-25T07:06:24.048Z,73.30
2023-01-25T07:08:53.448Z,72.60
2023-01-25T07:11:23.093Z,60.80
2023-01-25T07:13:54.087Z,57.60
2023-01-25T07:16:22.428Z,65.00
2023-01-25T07:18:50.832Z,68.50
2023-01-25T07:21:22.962Z,56.10
2023-01-25T07:23:53.291Z,68.30
2023-01-25T07:26:24.516Z,73.50
2023-01-25T07:28:56.487Z,71.00
2023-01-25T07:31:25.776Z,62.50
2023-01-25T07:33:56.133Z,63.70
2023-01-25T07:36:26.415Z,64.90
2023-01-25T07:38:57.392Z,67.40
2023-01-25T07:41:26.629Z,65.00
2023-01-25T07:43:55.884Z,68.60
2023-01-25T07:46:36.624Z,61.50
2023-01-25T07:49:05.278Z,54.80
2023-01-25T07:51:34.889Z,58.20
2023-01-25T07:54:05.554Z,66.60
2023-01-25T07:56:39.052Z,72.00
2023-01-25T07:59:09.175Z,69.00
2023-01-25T08:01:40.787Z,58.20
2023-01-25T08:04:11.144Z,61.40
2023-01-25T08:06:40.180Z,43.80
2023-01-25T08:09:20.401Z,61.50
2023-01-25T08:11:50.700Z,57.50
2023-01-25T08:14:21.425Z,54.50
2023-01-25T08:16:51.713Z,47.20
2023-01-25T08:19:22.377Z,41.20
2023-01-25T08:21:52.440Z,49.70
2023-01-25T08:24:21.308Z,53.10
2023-01-25T08:26:51.209Z,40.80
2023-01-25T08:29:20.061Z,43.80
2023-01-25T08:31:50.677Z,49.20
2023-01-25T08:34:19.684Z,50.40
2023-01-25T08:39:19.414Z,51.30
2023-01-25T08:41:48.688Z,57.90
2023-01-25T08:44:22.802Z,53.10
2023-01-25T08:46:52.924Z,49.90
2023-01-25T08:49:23.600Z,50.20
2023-01-25T08:52:01.344Z,48.90
2023-01-25T08:54:30.645Z,55.90
2023-01-25T08:56:59.578Z,69.70
2023-01-25T08:59:28.653Z,66.40
2023-01-25T09:01:58.601Z,64.10
2023-01-25T09:04:29.658Z,73.20
2023-01-25T09:06:58.899Z,75.00
2023-01-25T09:09:27.695Z,60.00
2023-01-25T09:11:57.393Z,57.60
2023-01-25T09:14:26.325Z,58.10
2023-01-25T09:16:55.528Z,53.10
2023-01-25T09:19:23.893Z,50.20
2023-01-25T09:21:52.378Z,45.90
2023-01-25T09:24:20.982Z,49.60
2023-01-25T09:26:59.462Z,61.30
2023-01-25T09:29:28.740Z,67.00
2023-01-25T09:31:57.650Z,64.40
2023-01-25T09:34:38.958Z,61.40
2023-01-25T09:37:08.835Z,48.70
2023-01-25T09:39:37.744Z,44.80
2023-01-25T09:42:44.980Z,50.60
2023-01-25T09:45:18.474Z,62.00
2023-01-25T09:48:25.254Z,54.90
2023-01-25T09:51:14.400Z,54.90
2023-01-25T09:53:51.336Z,63.20
2023-01-25T09:56:29.800Z,63.40
2023-01-25T09:59:07.506Z,53.20
2023-01-25T10:01:49.622Z,66.00
2023-01-25T10:04:22.058Z,61.00
2023-01-25T10:07:00.643Z,52.50
2023-01-25T10:09:55.338Z,56.50
2023-01-25T10:12:26.243Z,58.90
2023-01-25T10:14:56.148Z,58.20
2023-01-25T10:17:33.869Z,51.50
2023-01-25T10:20:14.688Z,56.50
2023-01-25T10:22:51.883Z,49.90
2023-01-25T10:25:36.476Z,51.10
2023-01-25T10:28:30.241Z,41.50
2023-01-25T10:31:05.612Z,27.70
2023-01-25T10:33:40.374Z,33.20
2023-01-25T10:36:22.641Z,38.90
2023-01-25T10:38:59.304Z,39.80
2023-01-25T10:41:42.202Z,37.90
2023-01-25T10:44:25.530Z,20.30
2023-01-25T10:47:13.358Z,13.80
2023-01-25T10:49:48.300Z,14.80
2023-01-25T10:52:22.990Z,15.70
2023-01-25T10:55:24.374Z,8.80
2023-01-25T10:58:00.359Z,8.40
2023-01-25T11:00:41.456Z,11.50
2023-01-25T11:03:25.923Z,13.40
2023-01-25T11:05:58.012Z,12.40
2023-01-25T11:08:40.076Z,11.50
2023-01-25T11:11:26.101Z,13.20
2023-01-25T11:13:56.814Z,12.70
2023-01-25T11:16:38.899Z,10.40
2023-01-25T11:19:36.911Z,11.30
2023-01-25T11:22:30.291Z,9.80
2023-01-25T11:25:30.289Z,17.50
2023-01-25T11:28:24.107Z,14.40
2023-01-25T11:30:55.560Z,8.40
2023-01-25T11:33:28.813Z,10.50
2023-01-25T11:36:05.912Z,11.50
2023-01-25T11:38:34.666Z,29.40
2023-01-25T11:41:12.708Z,13.80
2023-01-25T11:44:06.576Z,8.60
2023-01-25T11:47:15.393Z,11.50
2023-01-25T11:50:08.207Z,17.10
2023-01-25T11:53:15.902Z,12.60
2023-01-25T11:55:49.744Z,11.00
2023-01-25T11:58:46.934Z,10.60
2023-01-25T12:01:25.473Z,11.20
2023-01-25T12:04:25.101Z,10.40
2023-01-25T12:07:06.051Z,13.20
2023-01-25T12:09:46.946Z,14.90
2023-01-25T12:12:52.505Z,11.50
2023-01-25T12:15:52.840Z,14.00
2023-01-25T12:18:46.780Z,11.20
2023-01-25T12:21:49.796Z,12.40
2023-01-25T12:24:37.743Z,14.00
2023-01-25T12:27:51.399Z,13.20
2023-01-25T12:30:30.329Z,13.60
2023-01-25T12:33:22.575Z,10.60
2023-01-25T12:35:57.365Z,17.80
2023-01-25T12:38:40.398Z,22.50
2023-01-25T12:41:20.664Z,12.40
2023-01-25T12:44:12.020Z,15.50
2023-01-25T12:47:02.077Z,12.30
2023-01-25T12:49:42.530Z,10.60
2023-01-25T12:52:34.417Z,13.20
2023-01-25T12:55:05.864Z,16.20
2023-01-25T12:57:57.433Z,13.90
2023-01-25T13:00:50.204Z,18.00
2023-01-25T13:03:41.723Z,19.40
2023-01-25T13:06:22.187Z,14.80
2023-01-25T13:09:05.474Z,19.20
2023-01-25T13:11:38.049Z,20.50
2023-01-25T13:14:17.027Z,21.10
2023-01-25T13:16:53.927Z,20.80
2023-01-25T13:19:30.234Z,17.20
2023-01-25T13:22:00.758Z,20.80
2023-01-25T13:24:32.318Z,22.00
2023-01-25T13:27:25.703Z,17.30
2023-01-25T13:30:01.669Z,17.80
2023-01-25T13:32:34.282Z,23.50
2023-01-25T13:35:05.789Z,15.10
2023-01-25T13:37:36.797Z,15.50
2023-01-25T13:40:29.859Z,23.10
2023-01-25T13:43:02.017Z,19.40
2023-01-25T13:45:36.978Z,17.90
2023-01-25T13:48:05.389Z,14.70
2023-01-25T13:50:40.320Z,17.50
2023-01-25T13:53:15.359Z,14.60
2023-01-25T13:55:49.328Z,14.60
2023-01-25T13:58:35.109Z,13.10
2023-01-25T14:01:08.524Z,15.20
2023-01-25T14:03:45.987Z,17.10
2023-01-25T14:06:27.311Z,21.30
2023-01-25T14:08:58.458Z,15.50
2023-01-25T14:11:30.649Z,25.50
2023-01-25T14:14:32.154Z,16.00
2023-01-25T14:17:22.388Z,37.60
2023-01-25T14:19:55.540Z,15.80
2023-01-25T14:22:32.759Z,15.40
2023-01-25T14:25:15.776Z,11.50
2023-01-25T14:27:44.165Z,12.30
2023-01-25T14:30:32.433Z,13.60
2023-01-25T14:33:03.990Z,15.30
2023-01-25T14:35:43.361Z,18.20
2023-01-25T14:38:36.279Z,10.10
2023-01-25T14:41:19.890Z,22.10
2023-01-25T14:44:05.187Z,11.20
2023-01-25T14:46:38.945Z,13.20
2023-01-25T14:49:27.085Z,23.90
2023-01-25T14:52:20.254Z,14.10
2023-01-25T14:54:57.043Z,16.20
2023-01-25T14:57:41.529Z,20.20
2023-01-25T15:00:24.143Z,11.30
2023-01-25T15:02:56.710Z,16.30
2023-01-25T15:05:28.158Z,10.90
2023-01-25T15:08:09.319Z,10.70
2023-01-25T15:10:50.824Z,8.60
2023-01-25T15:13:25.148Z,11.80
2023-01-25T15:15:58.625Z,16.20
2023-01-25T15:18:55.472Z,13.40
2023-01-25T15:21:32.665Z,17.50
2023-01-25T15:24:07.706Z,9.20
2023-01-25T15:26:37.334Z,16.50
2023-01-25T15:29:16.033Z,10.20
2023-01-25T15:31:45.171Z,11.50
2023-01-25T15:34:21.305Z,12.70
2023-01-25T15:36:51.726Z,10.40
2023-01-25T15:39:21.035Z,16.50
2023-01-25T15:41:50.084Z,17.50
2023-01-25T15:44:20.696Z,19.10
2023-01-25T15:46:52.374Z,14.40
2023-01-25T15:49:27.816Z,16.20
2023-01-25T15:51:58.375Z,10.60
2023-01-25T15:54:28.165Z,11.20
2023-01-25T15:56:59.172Z,11.10
2023-01-25T15:59:28.623Z,12.20
2023-01-25T16:01:57.389Z,12.60
2023-01-25T16:04:27.291Z,10.10
2023-01-25T16:06:57.800Z,15.90
2023-01-25T16:09:30.503Z,9.70
2023-01-25T16:12:01.944Z,11.10
2023-01-25T16:14:31.940Z,12.60
2023-01-25T16:17:04.510Z,10.10
2023-01-25T16:19:34.066Z,9.90
2023-01-25T16:22:02.959Z,17.30
2023-01-25T16:24:31.282Z,12.60
2023-01-25T16:27:01.990Z,16.50
2023-01-25T16:29:31.430Z,12.40
2023-01-25T16:32:00.517Z,12.80
2023-01-25T16:34:29.319Z,17.10
2023-01-25T16:36:59.984Z,14.00
2023-01-25T16:39:28.635Z,14.60
2023-01-25T16:41:58.053Z,12.20
2023-01-25T16:44:27.721Z,12.80
2023-01-25T16:46:56.599Z,16.40
2023-01-25T16:49:40.925Z,17.80
2023-01-25T16:52:16.422Z,11.10
2023-01-25T16:54:53.610Z,17.40
2023-01-25T16:57:36.170Z,14.70
2023-01-25T17:00:25.547Z,16.70
2023-01-25T17:02:59.427Z,11.20
2023-01-25T17:05:33.489Z,15.90
2023-01-25T17:08:14.748Z,13.00
2023-01-25T17:11:07.081Z,12.00
2023-01-25T17:13:35.430Z,15.60
2023-01-25T17:16:05.747Z,11.90
2023-01-25T17:18:34.691Z,13.30
2023-01-25T17:21:06.876Z,13.90
2023-01-25T17:23:37.149Z,17.50
2023-01-25T17:26:07.133Z,15.00
2023-01-25T17:28:36.051Z,11.30
2023-01-25T17:31:05.237Z,15.10
2023-01-25T17:33:33.672Z,16.60
2023-01-25T17:36:03.039Z,12.50
2023-01-25T17:38:32.042Z,20.80
2023-01-25T17:41:10.144Z,10.40
2023-01-25T17:43:39.791Z,15.40
2023-01-25T17:46:26.422Z,9.60
2023-01-25T17:48:58.298Z,12.00
2023-01-25T17:51:27.257Z,11.10
2023-01-25T17:53:55.933Z,11.30
2023-01-25T17:56:24.674Z,11.20
2023-01-25T17:58:53.739Z,11.50
2023-01-25T18:01:25.093Z,12.50
2023-01-25T18:03:55.111Z,9.30
2023-01-25T18:06:28.256Z,8.80
2023-01-25T18:09:00.325Z,21.10
2023-01-25T18:11:34.296Z,15.70
2023-01-25T18:14:08.355Z,11.70
2023-01-25T18:16:38.936Z,13.30
2023-01-25T18:19:08.469Z,13.50
2023-01-25T18:21:37.482Z,12.20
2023-01-25T18:24:28.734Z,11.80
2023-01-25T18:27:06.645Z,11.10
2023-01-25T18:29:55.604Z,18.80
2023-01-25T18:32:24.267Z,11.80
2023-01-25T18:34:52.934Z,13.40
2023-01-25T18:37:21.988Z,12.50
2023-01-25T18:39:56.054Z,11.60
2023-01-25T18:42:26.819Z,15.90
2023-01-25T18:44:55.080Z,12.40
2023-01-25T18:47:23.958Z,12.80
2023-01-25T18:49:53.485Z,13.00
2023-01-25T18:52:23.649Z,20.60
2023-01-25T18:54:52.197Z,11.00
2023-01-25T18:57:20.560Z,12.80
2023-01-25T18:59:48.958Z,10.10
2023-01-25T19:02:18.726Z,11.60
2023-01-25T19:04:47.250Z,14.30
2023-01-25T19:07:16.067Z,12.90
2023-01-25T19:09:44.420Z,14.70
2023-01-25T19:12:12.734Z,12.20
2023-01-25T19:14:41.135Z,11.00
2023-01-25T19:17:09.572Z,15.20
2023-01-25T19:19:37.779Z,14.80
2023-01-25T19:22:05.920Z,13.90
2023-01-25T19:24:34.071Z,12.60
2023-01-25T19:27:02.465Z,11.00
2023-01-25T19:29:30.628Z,14.90
2023-01-25T19:31:58.858Z,14.80
2023-01-25T19:34:27.169Z,16.30
2023-01-25T19:36:56.022Z,15.00
2023-01-25T19:39:24.236Z,13.40
2023-01-25T19:41:53.684Z,12.60
2023-01-25T19:44:22.436Z,13.60
2023-01-25T19:46:51.144Z,13.20
2023-01-25T19:49:19.480Z,12.60
2023-01-25T19:51:53.442Z,22.40
2023-01-25T19:54:23.393Z,15.90
2023-01-25T19:56:51.706Z,18.00
2023-01-25T19:59:22.397Z,15.80
2023-01-25T20:01:50.878Z,15.10
2023-01-25T20:04:21.927Z,16.80
2023-01-25T20:06:51.338Z,14.80
2023-01-25T20:09:25.146Z,14.30
2023-01-25T20:11:55.867Z,14.30
2023-01-25T20:14:24.555Z,15.90
2023-01-25T20:16:53.027Z,16.90
2023-01-25T20:19:21.300Z,17.90
2023-01-25T20:21:49.852Z,15.20
2023-01-25T20:24:18.224Z,12.80
2023-01-25T20:26:46.334Z,16.70
2023-01-25T20:29:14.895Z,19.10
2023-01-25T20:31:45.799Z,13.10
2023-01-25T20:34:25.717Z,13.40
2023-01-25T20:36:54.526Z,15.40
2023-01-25T20:39:23.229Z,17.90
2023-01-25T20:41:53.756Z,13.40
2023-01-25T20:44:23.189Z,15.40
2023-01-25T20:46:52.327Z,18.20
2023-01-25T20:49:20.972Z,14.30
2023-01-25T20:51:49.554Z,17.00
2023-01-25T20:54:18.571Z,16.40
2023-01-25T20:56:48.298Z,16.30
2023-01-25T20:59:19.383Z,15.80
2023-01-25T21:01:47.735Z,14.20
2023-01-25T21:04:16.446Z,19.10
2023-01-25T21:06:45.080Z,15.80
2023-01-25T21:09:13.142Z,21.30
2023-01-25T21:11:41.741Z,20.00
2023-01-25T21:14:10.270Z,20.50
2023-01-25T21:16:39.198Z,17.30
2023-01-25T21:19:07.534Z,17.60
2023-01-25T21:21:38.720Z,16.60
2023-01-25T21:24:07.510Z,17.80
2023-01-25T21:26:38.509Z,19.60
2023-01-25T21:29:08.345Z,18.70
2023-01-25T21:31:43.109Z,21.80
2023-01-25T21:34:11.734Z,20.50
2023-01-25T21:36:40.249Z,16.90
2023-01-25T21:39:08.696Z,17.60
2023-01-25T21:41:36.922Z,17.50
2023-01-25T21:44:24.522Z,17.80
2023-01-25T21:47:23.661Z,18.40
2023-01-25T21:50:00.893Z,23.00
2023-01-25T21:52:29.204Z,22.50
2023-01-25T21:54:57.490Z,19.10
2023-01-25T21:57:25.895Z,22.80
2023-01-25T21:59:54.557Z,21.40
2023-01-25T22:02:23.423Z,21.40
2023-01-25T22:04:51.833Z,22.90
2023-01-25T22:07:20.348Z,24.50
2023-01-25T22:09:49.701Z,27.80
2023-01-25T22:12:18.330Z,21.50
2023-01-25T22:14:46.565Z,22.70
2023-01-25T22:17:15.081Z,20.40
2023-01-25T22:19:43.711Z,20.30
2023-01-25T22:22:12.280Z,22.90
2023-01-25T22:24:41.395Z,20.50
2023-01-25T22:27:29.015Z,21.50
2023-01-25T22:29:57.913Z,21.40
2023-01-25T22:32:26.308Z,25.50
2023-01-25T22:34:55.280Z,19.70
2023-01-25T22:37:23.849Z,23.20
2023-01-25T22:39:54.631Z,21.30
2023-01-25T22:42:23.390Z,19.80
2023-01-25T22:44:52.013Z,17.40
2023-01-25T22:47:20.361Z,19.80
2023-01-25T22:49:49.160Z,17.90
2023-01-25T22:52:17.514Z,18.40
2023-01-25T22:54:45.662Z,23.50
2023-01-25T22:57:14.167Z,21.50
2023-01-25T22:59:42.741Z,19.20
2023-01-25T23:02:11.635Z,22.70
2023-01-25T23:04:40.019Z,21.80
2023-01-25T23:07:13.118Z,19.80
2023-01-25T23:09:41.590Z,20.90
2023-01-25T23:12:10.813Z,19.50
2023-01-25T23:14:51.758Z,18.90
2023-01-25T23:17:41.231Z,17.10
2023-01-25T23:20:12.869Z,18.40
2023-01-25T23:22:41.769Z,19.10
2023-01-25T23:25:12.365Z,19.10
2023-01-25T23:27:40.890Z,23.20
2023-01-25T23:30:10.628Z,18.50
2023-01-25T23:32:40.221Z,24.20
2023-01-25T23:35:09.608Z,19.40
2023-01-25T23:37:39.129Z,22.40
2023-01-25T23:40:09.586Z,17.70
2023-01-25T23:42:38.984Z,20.70
2023-01-25T23:45:09.367Z,18.50
2023-01-25T23:47:38.253Z,18.80
2023-01-25T23:50:07.185Z,23.30
2023-01-25T23:52:35.564Z,22.00
2023-01-25T23:55:04.221Z,22.70
2023-01-25T23:57:32.429Z,22.90
